Time;durP1;ratioP1;P1;durP2;ratioP2;P2;SDS_P1;SDS_P2;PMS_P1;PMS_P2;Temp;Humidity;BMP_temperature;BMP_pressure;BME280_temperature;BME280_humidity;BME280_pressure;Samples;Min_cycle;Max_cycle;Signal;HPM_P1;HPM_P2
2023/08/29 00:01:02;;;;;;;1.93;1.50;;;13.80;99.90;13.80;99948.00;;;;5022620;27;116098;-69
2023/08/29 00:03:30;;;;;;;1.53;1.33;;;13.80;99.90;13.80;99945.00;;;;5027868;27;88699;-69
2023/08/29 00:06:04;;;;;;;2.55;1.80;;;13.80;99.90;13.80;99945.00;;;;5025121;27;87900;-70
2023/08/29 00:08:30;;;;;;;1.92;1.35;;;13.80;99.90;13.80;99939.00;;;;5022757;27;87708;-70
2023/08/29 00:10:56;;;;;;;1.20;1.10;;;13.80;99.90;13.80;99936.00;;;;5020220;27;89885;-70
2023/08/29 00:13:23;;;;;;;2.17;1.33;;;13.80;99.90;13.80;99938.00;;;;5019481;27;89010;-70
2023/08/29 00:15:49;;;;;;;3.88;2.20;;;13.80;99.90;13.80;99939.00;;;;5023507;27;88975;-68
2023/08/29 00:18:15;;;;;;;2.50;1.43;;;13.70;99.90;13.80;99922.00;;;;5021644;27;88245;-68
2023/08/29 00:20:41;;;;;;;2.10;1.83;;;13.70;99.90;13.80;99919.00;;;;5023711;27;88151;-69
2023/08/29 00:23:09;;;;;;;2.93;2.03;;;13.80;99.90;13.80;99916.00;;;;5022071;27;117790;-69
2023/08/29 00:25:35;;;;;;;3.63;1.77;;;13.80;99.90;13.80;99921.00;;;;5023374;27;87467;-69
2023/08/29 00:28:01;;;;;;;3.93;1.33;;;13.80;99.90;13.80;99925.00;;;;5020830;27;102569;-70
2023/08/29 00:30:36;;;;;;;1.17;1.07;;;13.80;99.90;13.80;99914.00;;;;5023614;27;117122;-69
2023/08/29 00:33:01;;;;;;;1.43;1.33;;;13.80;99.90;13.80;99915.00;;;;5023969;27;99208;-70
2023/08/29 00:35:27;;;;;;;1.80;1.60;;;13.70;99.90;13.80;99916.00;;;;5024262;27;110961;-70
2023/08/29 00:37:53;;;;;;;1.80;1.63;;;13.80;99.90;13.80;99904.00;;;;5024454;27;108756;-70
2023/08/29 00:40:18;;;;;;;1.43;1.33;;;13.80;99.90;13.80;99913.00;;;;5024833;27;116825;-69
2023/08/29 00:42:44;;;;;;;2.37;1.90;;;13.80;99.90;13.80;99913.00;;;;5031777;27;116199;-70
2023/08/29 00:45:10;;;;;;;1.58;1.48;;;13.80;99.90;13.80;99931.00;;;;5022117;27;110015;-70
2023/08/29 00:47:37;;;;;;;2.40;1.87;;;13.80;99.90;13.80;99932.00;;;;5024424;27;87724;-70
2023/08/29 00:50:03;;;;;;;1.77;1.63;;;13.80;99.90;13.80;99938.00;;;;5028655;27;87812;-69
2023/08/29 00:52:30;;;;;;;1.60;1.48;;;13.80;99.90;13.80;99928.00;;;;5026618;27;88304;-69
2023/08/29 00:54:56;;;;;;;1.60;1.50;;;13.80;99.90;13.70;99931.00;;;;5023824;27;109558;-68
2023/08/29 00:57:23;;;;;;;1.03;0.90;;;13.70;99.90;13.80;99930.00;;;;5024489;27;108925;-69
2023/08/29 00:59:49;;;;;;;2.55;2.28;;;13.70;99.90;13.80;99924.00;;;;5021458;27;111739;-69
2023/08/29 01:02:14;;;;;;;2.07;1.77;;;13.70;99.90;13.80;99929.00;;;;5027559;27;116235;-69
2023/08/29 01:04:40;;;;;;;1.23;1.13;;;13.70;99.90;13.80;99928.00;;;;5022202;27;111378;-69
2023/08/29 01:07:06;;;;;;;1.60;1.35;;;13.70;99.90;13.70;99927.00;;;;5026773;27;107126;-71
2023/08/29 01:09:33;;;;;;;2.20;1.83;;;13.80;99.90;13.70;99942.00;;;;5026275;27;87783;-70
2023/08/29 01:12:15;;;;;;;1.35;1.25;;;13.70;99.90;13.70;99935.00;;;;5005116;27;110273;-70
2023/08/29 01:14:52;;;;;;;2.60;1.57;;;13.80;99.90;13.70;99931.00;;;;5022650;27;87980;-71
2023/08/29 01:17:35;;;;;;;1.57;1.40;;;13.80;99.90;13.70;99928.00;;;;5024061;27;88784;-70
2023/08/29 01:20:02;;;;;;;2.20;1.73;;;13.80;99.90;13.80;99938.00;;;;5004055;27;109160;-70
2023/08/29 01:23:02;;;;;;;2.93;1.87;;;13.80;99.90;13.70;99936.00;;;;5010879;27;88248;-70
2023/08/29 01:26:01;;;;;;;4.50;2.33;;;13.80;99.90;13.70;99928.00;;;;5009074;27;88961;-70
2023/08/29 01:28:38;;;;;;;2.10;1.90;;;13.80;99.90;13.70;99922.00;;;;5006346;27;100065;-70
2023/08/29 01:31:07;;;;;;;2.00;1.77;;;13.80;99.90;13.80;99925.00;;;;5001746;27;88091;-70
2023/08/29 01:33:34;;;;;;;1.77;1.67;;;13.80;99.90;13.70;99917.00;;;;5005662;27;88163;-71
2023/08/29 01:36:00;;;;;;;2.73;1.57;;;13.70;99.90;13.70;99921.00;;;;5004872;27;100621;-70
2023/08/29 01:38:26;;;;;;;2.30;2.10;;;13.70;99.90;13.70;99928.00;;;;5011331;27;101672;-71
2023/08/29 01:40:52;;;;;;;2.20;1.90;;;13.70;99.90;13.70;99918.00;;;;4993817;27;89673;-70
2023/08/29 01:43:17;;;;;;;2.37;1.80;;;13.70;99.90;13.70;99914.00;;;;5022356;27;117825;-70
2023/08/29 01:45:43;;;;;;;2.57;1.87;;;13.70;99.90;13.70;99912.00;;;;5022373;27;87776;-70
2023/08/29 01:48:11;;;;;;;2.50;2.00;;;13.70;99.90;13.70;99905.00;;;;5021622;27;107289;-69
2023/08/29 01:50:37;;;;;;;2.17;1.63;;;13.70;99.90;13.70;99904.00;;;;5018349;27;117898;-71
2023/08/29 01:53:04;;;;;;;1.97;1.77;;;13.70;99.90;13.80;99901.00;;;;5007159;27;88687;-70
2023/08/29 01:55:31;;;;;;;3.63;1.93;;;13.70;99.90;13.80;99901.00;;;;5005882;27;109727;-70
2023/08/29 01:57:59;;;;;;;2.20;1.63;;;13.70;99.90;13.80;99893.00;;;;5008539;27;87979;-70
2023/08/29 02:00:25;;;;;;;2.40;2.07;;;13.80;99.90;13.80;99883.00;;;;5008292;27;89049;-71
2023/08/29 02:02:51;;;;;;;1.70;1.40;;;13.80;99.90;13.80;99879.00;;;;4996061;27;116390;-71
2023/08/29 02:05:16;;;;;;;2.53;1.57;;;13.80;99.90;13.80;99880.00;;;;5028182;27;88205;-71
2023/08/29 02:07:42;;;;;;;1.97;1.47;;;13.80;99.90;13.80;99872.00;;;;5028872;27;107378;-71
2023/08/29 02:10:09;;;;;;;2.73;2.37;;;13.80;99.90;13.80;99862.00;;;;5032092;27;118215;-71
2023/08/29 02:12:34;;;;;;;2.40;1.63;;;13.80;99.90;13.80;99855.00;;;;5037687;27;88334;-70
2023/08/29 02:15:00;;;;;;;2.20;1.80;;;13.70;99.90;13.80;99853.00;;;;5028680;27;108095;-70
2023/08/29 02:17:27;;;;;;;2.10;1.67;;;13.70;99.90;13.70;99850.00;;;;5027452;27;107034;-70
2023/08/29 02:19:52;;;;;;;2.07;1.53;;;13.70;99.90;13.70;99851.00;;;;5027084;27;89387;-70
2023/08/29 02:22:24;;;;;;;2.30;1.88;;;13.70;99.90;13.70;99845.00;;;;5032294;27;113213;-71
2023/08/29 02:24:49;;;;;;;1.20;1.03;;;13.70;99.90;13.70;99850.00;;;;5008584;27;110453;-70
2023/08/29 02:27:15;;;;;;;2.23;2.03;;;13.70;99.90;13.70;99851.00;;;;5030072;27;98744;-71
2023/08/29 02:29:41;;;;;;;3.00;1.40;;;13.70;99.90;13.70;99843.00;;;;5008092;27;118231;-71
2023/08/29 02:32:07;;;;;;;3.10;1.97;;;13.70;99.90;13.70;99836.00;;;;5027659;27;105976;-71
2023/08/29 02:34:33;;;;;;;1.97;1.77;;;13.70;99.90;13.70;99836.00;;;;5030478;27;88196;-71
2023/08/29 02:36:58;;;;;;;1.77;1.67;;;13.70;99.90;13.70;99836.00;;;;5025597;27;107434;-71
2023/08/29 02:39:24;;;;;;;2.20;2.00;;;13.70;99.90;13.70;99834.00;;;;5011272;27;88802;-71
2023/08/29 02:41:50;;;;;;;2.13;1.77;;;13.70;99.90;13.70;99812.00;;;;5030445;27;119790;-72
2023/08/29 02:44:15;;;;;;;3.63;1.87;;;13.70;99.90;13.70;99817.00;;;;4990398;27;109330;-71
2023/08/29 02:46:41;;;;;;;2.80;2.03;;;13.70;99.90;13.70;99804.00;;;;5025597;27;89407;-71
2023/08/29 02:49:07;;;;;;;4.50;2.73;;;13.70;99.90;13.70;99802.00;;;;5027800;27;118221;-71
2023/08/29 02:51:33;;;;;;;2.10;1.90;;;13.70;99.90;13.70;99791.00;;;;5022218;27;118328;-70
2023/08/29 02:53:58;;;;;;;2.63;2.37;;;13.70;99.90;13.70;99778.00;;;;5027948;27;95582;-71
2023/08/29 02:56:24;;;;;;;1.93;1.70;;;13.70;99.90;13.70;99770.00;;;;5025598;27;108727;-71
2023/08/29 02:58:50;;;;;;;2.67;2.47;;;13.70;99.90;13.70;99771.00;;;;5025668;27;115535;-71
2023/08/29 03:01:16;;;;;;;3.40;2.40;;;13.60;99.90;13.70;99768.00;;;;5023650;27;88067;-71
2023/08/29 03:03:42;;;;;;;2.93;2.40;;;13.70;99.90;13.70;99767.00;;;;5023871;27;110005;-71
2023/08/29 03:06:07;;;;;;;1.83;1.50;;;13.70;99.90;13.70;99757.00;;;;5021534;27;98142;-70
2023/08/29 03:08:33;;;;;;;2.63;1.97;;;13.70;99.90;13.70;99759.00;;;;5023122;27;115629;-69
2023/08/29 03:11:05;;;;;;;2.30;2.10;;;13.70;99.90;13.70;99753.00;;;;5023884;27;117338;-71
2023/08/29 03:13:31;;;;;;;2.70;2.03;;;13.70;99.90;13.70;99765.00;;;;5008866;27;87969;-69
2023/08/29 03:15:59;;;;;;;2.83;2.27;;;13.70;99.90;13.70;99767.00;;;;5010189;27;87883;-69
2023/08/29 03:18:27;;;;;;;1.67;1.57;;;13.70;99.90;13.70;99758.00;;;;5012238;27;88480;-68
2023/08/29 03:20:53;;;;;;;4.33;1.93;;;13.70;99.90;13.70;99761.00;;;;5023091;27;105127;-67
2023/08/29 03:23:19;;;;;;;2.90;2.50;;;13.60;99.90;13.70;99762.00;;;;5022114;27;99775;-68
2023/08/29 03:25:45;;;;;;;3.00;2.00;;;13.60;99.90;13.70;99759.00;;;;5025220;27;103700;-68
2023/08/29 03:28:11;;;;;;;2.47;2.27;;;13.60;99.90;13.70;99758.00;;;;5023099;27;89036;-68
2023/08/29 03:30:36;;;;;;;2.13;1.93;;;13.70;99.90;13.70;99763.00;;;;5022288;27;119024;-69
2023/08/29 03:33:02;;;;;;;3.57;1.50;;;13.70;99.90;13.70;99759.00;;;;5028831;27;95613;-68
2023/08/29 03:35:28;;;;;;;5.13;2.07;;;13.70;99.90;13.70;99757.00;;;;5025257;27;87938;-68
2023/08/29 03:37:53;;;;;;;2.70;2.00;;;13.70;99.90;13.70;99765.00;;;;5021424;27;117957;-68
2023/08/29 03:40:19;;;;;;;1.80;1.70;;;13.70;99.90;13.70;99764.00;;;;5026718;27;116445;-69
2023/08/29 03:42:45;;;;;;;2.47;2.17;;;13.70;99.90;13.70;99767.00;;;;5024555;27;109317;-69
2023/08/29 03:45:10;;;;;;;1.83;1.70;;;13.70;99.90;13.70;99783.00;;;;5025854;27;109232;-68
2023/08/29 03:47:39;;;;;;;2.23;1.77;;;13.70;99.90;13.70;99783.00;;;;5022788;27;117339;-67
2023/08/29 03:50:06;;;;;;;2.37;2.03;;;13.70;99.90;13.70;99778.00;;;;5025629;27;88454;-67
2023/08/29 03:52:32;;;;;;;2.20;1.90;;;13.70;99.90;13.70;99785.00;;;;5030062;27;89241;-68
2023/08/29 03:54:58;;;;;;;2.33;2.13;;;13.70;99.90;13.70;99786.00;;;;5024212;27;109885;-67
2023/08/29 03:57:24;;;;;;;2.67;1.87;;;13.70;99.90;13.80;99792.00;;;;5026613;27;102075;-68
2023/08/29 03:59:50;;;;;;;2.43;1.87;;;13.70;99.90;13.80;99788.00;;;;5025096;27;108976;-67
2023/08/29 04:02:16;;;;;;;2.27;2.07;;;13.70;99.90;13.80;99784.00;;;;5024909;27;111263;-67
2023/08/29 04:04:44;;;;;;;2.30;2.07;;;13.80;99.90;13.80;99781.00;;;;5024359;27;108509;-68
2023/08/29 04:07:10;;;;;;;2.07;1.87;;;13.70;99.90;13.80;99776.00;;;;5026614;27;88131;-68
2023/08/29 04:09:37;;;;;;;2.77;2.53;;;13.80;99.90;13.80;99774.00;;;;5025072;27;87870;-68
2023/08/29 04:12:03;;;;;;;2.50;2.30;;;13.80;99.90;13.80;99774.00;;;;5024946;27;87827;-68
2023/08/29 04:14:28;;;;;;;2.77;2.47;;;13.80;99.90;13.80;99782.00;;;;5025322;27;88168;-68
2023/08/29 04:16:55;;;;;;;2.37;2.00;;;13.80;99.90;13.80;99768.00;;;;5021028;27;118466;-67
2023/08/29 04:19:21;;;;;;;4.17;2.37;;;13.80;99.90;13.80;99764.00;;;;5022665;27;88687;-67
2023/08/29 04:21:48;;;;;;;2.33;2.13;;;13.60;99.90;13.80;99751.00;;;;5023564;27;87889;-66
2023/08/29 04:24:13;;;;;;;2.77;2.53;;;13.70;99.90;13.80;99742.00;;;;5025641;27;87795;-67
2023/08/29 04:26:39;;;;;;;3.83;2.73;;;13.70;99.90;13.80;99736.00;;;;5027661;27;118722;-68
2023/08/29 04:29:05;;;;;;;1.57;1.47;;;13.80;99.90;13.80;99740.00;;;;5027089;27;117360;-68
2023/08/29 04:31:30;;;;;;;2.07;1.53;;;13.70;99.90;13.80;99743.00;;;;5023416;27;110976;-69
2023/08/29 04:33:56;;;;;;;2.30;1.80;;;13.80;99.90;13.80;99750.00;;;;4991457;27;107895;-68
2023/08/29 04:36:22;;;;;;;2.07;1.70;;;13.80;99.90;13.80;99766.00;;;;5024247;27;88050;-68
2023/08/29 04:38:48;;;;;;;2.40;1.75;;;13.80;99.90;13.80;99768.00;;;;5020652;27;116251;-68
2023/08/29 04:41:14;;;;;;;2.17;1.97;;;13.80;99.90;13.80;99781.00;;;;5027114;27;89077;-67
2023/08/29 04:43:40;;;;;;;2.60;2.10;;;13.80;99.90;13.80;99774.00;;;;5000920;27;88733;-67
2023/08/29 04:46:08;;;;;;;1.63;1.53;;;13.80;99.90;13.90;99771.00;;;;5021485;27;117712;-67
2023/08/29 04:48:35;;;;;;;2.10;1.93;;;13.80;99.90;13.90;99762.00;;;;5023789;27;118508;-67
2023/08/29 04:51:02;;;;;;;1.80;1.70;;;13.80;99.90;13.90;99759.00;;;;5022854;27;88419;-67
2023/08/29 04:53:27;;;;;;;2.50;2.20;;;13.80;99.90;13.90;99771.00;;;;5029308;27;87981;-67
2023/08/29 04:56:04;;;;;;;2.23;1.40;;;13.80;99.90;13.90;99788.00;;;;5029124;27;115475;-66
2023/08/29 04:58:30;;;;;;;1.67;1.57;;;13.80;99.90;13.90;99797.00;;;;5027360;27;89298;-66
2023/08/29 05:00:57;;;;;;;2.10;1.97;;;13.80;99.90;13.90;99792.00;;;;5021170;27;106157;-66
2023/08/29 05:03:23;;;;;;;1.80;1.70;;;13.80;99.90;13.90;99777.00;;;;5024261;27;88001;-66
2023/08/29 05:05:49;;;;;;;2.80;1.60;;;13.80;99.90;13.90;99760.00;;;;5024075;27;91846;-65
2023/08/29 05:08:15;;;;;;;2.07;1.40;;;13.80;99.90;13.90;99756.00;;;;5023960;27;89550;-65
2023/08/29 05:10:41;;;;;;;2.53;1.20;;;13.80;99.90;13.90;99749.00;;;;5020563;27;110002;-65
2023/08/29 05:13:06;;;;;;;1.17;1.07;;;13.80;99.90;13.90;99753.00;;;;5020625;27;87707;-67
2023/08/29 05:15:32;;;;;;;1.33;1.23;;;13.80;99.90;13.90;99774.00;;;;5022334;27;117434;-65
2023/08/29 05:17:58;;;;;;;1.80;1.50;;;13.80;99.90;13.90;99770.00;;;;5026169;27;88270;-64
2023/08/29 05:20:24;;;;;;;3.40;2.23;;;13.80;99.90;13.90;99777.00;;;;5023079;27;111601;-63
2023/08/29 05:22:50;;;;;;;2.27;1.67;;;13.80;99.90;13.90;99768.00;;;;5022868;27;110482;-64
2023/08/29 05:25:15;;;;;;;2.27;1.23;;;13.80;99.90;13.90;99777.00;;;;5028082;27;88166;-64
2023/08/29 05:27:41;;;;;;;2.23;1.37;;;13.80;99.90;13.90;99778.00;;;;5022303;27;88039;-65
2023/08/29 05:30:08;;;;;;;5.07;1.70;;;13.80;99.90;13.90;99777.00;;;;5022529;27;110540;-65
2023/08/29 05:32:36;;;;;;;1.90;1.40;;;13.80;99.90;13.90;99769.00;;;;5027235;27;87857;-65
2023/08/29 05:35:02;;;;;;;1.47;1.33;;;13.80;99.90;13.90;99765.00;;;;5021282;27;106238;-65
2023/08/29 05:37:28;;;;;;;1.90;1.63;;;13.90;99.90;13.90;99769.00;;;;5028164;27;88267;-65
2023/08/29 05:39:53;;;;;;;1.03;0.97;;;13.90;99.90;13.90;99768.00;;;;5023103;27;109542;-64
2023/08/29 05:42:19;;;;;;;1.67;1.30;;;13.90;99.90;13.90;99780.00;;;;5022284;27;109836;-65
2023/08/29 05:44:45;;;;;;;1.87;1.07;;;13.90;99.90;13.90;99782.00;;;;5023273;27;88391;-65
2023/08/29 05:47:10;;;;;;;2.40;1.87;;;13.90;99.90;13.90;99786.00;;;;5020155;27;90510;-65
2023/08/29 05:49:36;;;;;;;1.87;1.33;;;13.90;99.90;13.90;99787.00;;;;5022208;27;110656;-65
2023/08/29 05:52:02;;;;;;;1.17;1.07;;;13.90;99.90;13.90;99796.00;;;;5022912;27;87877;-65
2023/08/29 05:54:28;;;;;;;1.37;1.27;;;13.90;99.90;13.90;99791.00;;;;5022797;27;89609;-65
2023/08/29 05:56:54;;;;;;;1.33;1.07;;;13.90;99.90;13.90;99798.00;;;;5021147;27;89162;-65
2023/08/29 05:59:19;;;;;;;2.03;1.33;;;13.90;99.90;14.00;99803.00;;;;5020295;27;87979;-65
2023/08/29 06:01:45;;;;;;;1.17;1.00;;;13.90;99.90;14.00;99802.00;;;;5025110;27;110183;-65
2023/08/29 06:04:11;;;;;;;0.90;0.90;;;13.90;99.90;14.00;99800.00;;;;5020439;27;104803;-64
2023/08/29 06:06:39;;;;;;;1.30;1.20;;;13.90;99.90;13.90;99794.00;;;;5023417;27;118081;-64
2023/08/29 06:09:08;;;;;;;1.43;1.33;;;13.90;99.90;14.00;99788.00;;;;5025836;27;87718;-64
2023/08/29 06:11:37;;;;;;;1.00;0.80;;;13.90;99.90;14.00;99789.00;;;;5006920;27;87107;-64
2023/08/29 06:14:02;;;;;;;2.73;1.60;;;13.90;99.90;14.00;99801.00;;;;5021192;27;88479;-64
2023/08/29 06:16:29;;;;;;;0.90;0.90;;;13.90;99.90;14.00;99796.00;;;;5016295;27;117977;-64
2023/08/29 06:18:55;;;;;;;0.83;0.83;;;14.20;99.90;14.00;99799.00;;;;5025049;27;88856;-65
2023/08/29 06:21:23;;;;;;;1.37;1.27;;;13.90;99.90;14.00;99798.00;;;;5024467;27;109221;-65
2023/08/29 06:23:49;;;;;;;1.57;1.30;;;14.00;99.90;14.00;99800.00;;;;5027740;27;115711;-64
2023/08/29 06:26:15;;;;;;;1.63;1.53;;;13.90;99.90;14.00;99791.00;;;;5026580;27;88006;-64
2023/08/29 06:28:41;;;;;;;3.20;1.17;;;13.90;99.90;14.00;99789.00;;;;5024225;27;87762;-64
2023/08/29 06:31:08;;;;;;;3.10;1.33;;;14.00;99.90;14.10;99795.00;;;;5023385;27;88100;-65
2023/08/29 06:33:43;;;;;;;1.93;1.17;;;14.00;99.90;14.10;99786.00;;;;5025428;27;88588;-64
2023/08/29 06:36:09;;;;;;;1.43;1.23;;;14.10;99.90;14.20;99788.00;;;;5021571;27;88770;-64
2023/08/29 06:38:34;;;;;;;1.10;1.00;;;14.10;99.90;14.20;99790.00;;;;5025373;27;111672;-64
2023/08/29 06:41:00;;;;;;;1.50;1.40;;;14.10;99.90;14.20;99787.00;;;;5024838;27;88254;-65
2023/08/29 06:43:26;;;;;;;1.13;1.03;;;14.10;99.90;14.30;99779.00;;;;5020597;27;118528;-65
2023/08/29 06:45:52;;;;;;;0.90;0.90;;;14.20;99.90;14.30;99781.00;;;;5020412;27;88737;-64
2023/08/29 06:48:18;;;;;;;1.05;1.02;;;14.20;99.90;14.30;99776.00;;;;5023077;27;111894;-65
2023/08/29 06:50:45;;;;;;;1.07;0.90;;;14.30;99.90;14.40;99779.00;;;;5023531;27;108017;-64
2023/08/29 06:53:11;;;;;;;1.07;0.80;;;14.30;99.90;14.40;99789.00;;;;5025564;27;88719;-65
2023/08/29 06:55:36;;;;;;;0.80;0.80;;;14.30;99.90;14.40;99790.00;;;;5026181;27;117635;-65
2023/08/29 06:58:05;;;;;;;1.50;0.83;;;14.30;99.90;14.40;99788.00;;;;5026070;27;109041;-65
2023/08/29 07:00:31;;;;;;;1.03;0.93;;;14.30;99.90;14.40;99782.00;;;;5036781;27;86848;-65
2023/08/29 07:02:58;;;;;;;1.40;0.90;;;14.40;99.90;14.50;99775.00;;;;5027120;27;88707;-65
2023/08/29 07:05:24;;;;;;;1.03;0.67;;;14.40;99.90;14.50;99782.00;;;;5025094;27;104255;-64
2023/08/29 07:07:50;;;;;;;1.80;1.00;;;14.40;99.90;14.50;99777.00;;;;5026982;27;109372;-64
2023/08/29 07:10:15;;;;;;;0.50;0.50;;;14.40;99.90;14.50;99781.00;;;;5025535;27;87708;-64
2023/08/29 07:12:42;;;;;;;1.17;0.80;;;14.40;99.90;14.60;99785.00;;;;5024975;27;115912;-64
2023/08/29 07:15:08;;;;;;;1.10;0.97;;;14.50;99.90;14.60;99789.00;;;;5028137;27;88029;-64
2023/08/29 07:17:34;;;;;;;3.07;1.13;;;14.50;99.90;14.60;99794.00;;;;5027218;27;89376;-64
2023/08/29 07:20:00;;;;;;;2.30;1.17;;;14.50;99.90;14.60;99794.00;;;;5025232;27;87894;-65
2023/08/29 07:22:25;;;;;;;1.42;1.08;;;14.50;99.90;14.60;99787.00;;;;5025874;27;116987;-65
2023/08/29 07:24:52;;;;;;;1.45;0.80;;;14.60;99.90;14.70;99795.00;;;;5023863;27;100063;-65
2023/08/29 07:27:18;;;;;;;1.10;1.00;;;14.60;99.90;14.70;99785.00;;;;5024094;27;102543;-64
2023/08/29 07:29:44;;;;;;;0.97;0.60;;;14.60;99.90;14.70;99789.00;;;;5029433;27;98620;-64
2023/08/29 07:32:09;;;;;;;2.05;0.85;;;14.60;99.90;14.80;99792.00;;;;5028780;27;89459;-66
2023/08/29 07:34:36;;;;;;;1.23;0.98;;;14.70;99.90;14.80;99791.00;;;;5026545;27;118467;-63
2023/08/29 07:37:01;;;;;;;1.10;0.63;;;14.70;99.90;14.80;99786.00;;;;5028113;27;87612;-64
2023/08/29 07:39:27;;;;;;;1.27;1.05;;;14.70;99.90;14.80;99795.00;;;;5029752;27;87824;-65
2023/08/29 07:41:53;;;;;;;0.60;0.60;;;14.70;99.90;14.80;99806.00;;;;5025742;27;117218;-65
2023/08/29 07:44:19;;;;;;;0.75;0.38;;;14.70;99.90;14.80;99798.00;;;;5026859;27;88395;-64
2023/08/29 07:46:44;;;;;;;0.68;0.32;;;14.70;99.90;14.70;99807.00;;;;5026544;27;109915;-65
2023/08/29 07:49:13;;;;;;;1.05;0.95;;;14.60;99.90;14.70;99804.00;;;;5024854;27;108900;-65
2023/08/29 07:51:42;;;;;;;0.65;0.60;;;14.70;99.90;14.70;99800.00;;;;5024149;27;88806;-64
2023/08/29 07:54:07;;;;;;;1.20;0.65;;;14.70;99.90;14.70;99795.00;;;;5022040;27;116903;-67
2023/08/29 07:56:33;;;;;;;1.30;1.05;;;14.70;99.90;14.80;99796.00;;;;5022787;27;88656;-66
2023/08/29 07:58:59;;;;;;;2.92;0.68;;;14.70;99.90;14.80;99794.00;;;;5026298;27;107389;-64
2023/08/29 08:01:24;;;;;;;0.80;0.70;;;14.70;99.90;14.80;99802.00;;;;5023336;27;116156;-65
2023/08/29 08:03:50;;;;;;;1.17;0.73;;;14.70;99.90;14.80;99796.00;;;;5028874;27;112199;-64
2023/08/29 08:06:16;;;;;;;1.00;0.90;;;14.80;99.90;14.80;99795.00;;;;5024919;27;110852;-64
2023/08/29 08:08:41;;;;;;;0.50;0.50;;;14.80;99.90;14.80;99791.00;;;;5027714;27;88008;-64
2023/08/29 08:11:08;;;;;;;1.80;0.65;;;14.80;99.90;14.80;99795.00;;;;5031311;27;117022;-64
2023/08/29 08:13:34;;;;;;;0.65;0.60;;;14.80;99.90;14.80;99799.00;;;;5013653;27;110890;-64
2023/08/29 08:16:00;;;;;;;0.43;0.43;;;14.70;99.90;14.80;99802.00;;;;5030182;27;111695;-63
2023/08/29 08:18:26;;;;;;;0.68;0.57;;;14.70;99.90;14.70;99799.00;;;;5026414;27;107998;-65
2023/08/29 08:20:51;;;;;;;1.50;0.40;;;14.70;99.90;14.70;99799.00;;;;5027527;27;89129;-63
2023/08/29 08:23:17;;;;;;;0.80;0.80;;;14.60;99.90;14.70;99792.00;;;;5018387;27;118319;-63
2023/08/29 08:25:44;;;;;;;0.50;0.50;;;14.60;99.90;14.70;99788.00;;;;5023736;27;104723;-63
2023/08/29 08:28:10;;;;;;;0.50;0.30;;;14.70;99.90;14.80;99782.00;;;;5027861;27;87912;-64
2023/08/29 08:30:37;;;;;;;0.65;0.65;;;14.70;99.90;14.80;99791.00;;;;5028494;27;89163;-63
2023/08/29 08:33:05;;;;;;;0.68;0.68;;;14.70;99.90;14.80;99790.00;;;;5020031;27;88497;-64
2023/08/29 08:35:31;;;;;;;1.07;0.77;;;14.70;99.90;14.80;99788.00;;;;5026631;27;87789;-65
2023/08/29 08:37:56;;;;;;;0.52;0.52;;;14.80;99.90;14.90;99789.00;;;;5023890;27;101932;-63
2023/08/29 08:40:22;;;;;;;1.05;0.50;;;14.80;99.90;14.90;99794.00;;;;5025160;27;118340;-63
2023/08/29 08:42:48;;;;;;;0.75;0.60;;;14.80;99.90;14.90;99799.00;;;;5027054;27;87961;-63
2023/08/29 08:45:14;;;;;;;1.10;0.70;;;14.90;99.90;15.00;99797.00;;;;5023322;27;110777;-64
2023/08/29 08:47:40;;;;;;;0.38;0.38;;;14.90;99.90;15.00;99806.00;;;;5027887;27;88585;-63
2023/08/29 08:50:10;;;;;;;0.70;0.50;;;14.90;99.90;15.00;99806.00;;;;5026063;27;117509;-63
2023/08/29 08:52:38;;;;;;;0.82;0.70;;;14.90;99.90;15.10;99802.00;;;;5024149;27;88631;-64
2023/08/29 08:55:05;;;;;;;0.32;0.30;;;15.00;99.90;15.10;99795.00;;;;5020765;27;88186;-64
2023/08/29 08:57:31;;;;;;;0.52;0.40;;;15.00;99.90;15.10;99799.00;;;;5027122;27;88062;-63
2023/08/29 08:59:57;;;;;;;0.22;0.22;;;15.00;99.90;15.10;99791.00;;;;5023998;27;109302;-64
2023/08/29 09:02:24;;;;;;;0.40;0.40;;;15.00;99.90;15.10;99799.00;;;;5022643;27;92517;-64
2023/08/29 09:04:50;;;;;;;0.30;0.30;;;15.00;99.90;15.20;99799.00;;;;5023341;27;110916;-64
2023/08/29 09:07:16;;;;;;;0.50;0.50;;;15.10;99.90;15.20;99803.00;;;;5006912;27;108179;-62
2023/08/29 09:09:41;;;;;;;0.40;0.40;;;15.10;99.90;15.20;99802.00;;;;5025319;27;89006;-62
2023/08/29 09:12:07;;;;;;;0.60;0.52;;;15.10;99.90;15.30;99797.00;;;;5024379;27;117267;-63
2023/08/29 09:14:33;;;;;;;4.20;0.47;;;15.20;99.90;15.30;99806.00;;;;5024857;27;93146;-63
2023/08/29 09:17:00;;;;;;;0.40;0.40;;;15.20;99.90;15.30;99800.00;;;;5027018;27;97408;-64
2023/08/29 09:19:30;;;;;;;0.30;0.30;;;15.20;99.90;15.40;99806.00;;;;5023041;27;88589;-63
2023/08/29 09:21:57;;;;;;;0.40;0.40;;;15.30;99.90;15.40;99813.00;;;;5028581;27;88067;-63
2023/08/29 09:24:33;;;;;;;0.75;0.63;;;15.30;99.90;15.40;99798.00;;;;5007561;27;107132;-64
2023/08/29 09:26:59;;;;;;;0.68;0.50;;;15.30;99.90;15.40;99797.00;;;;5026623;27;87306;-62
2023/08/29 09:29:26;;;;;;;0.32;0.30;;;15.30;99.90;15.40;99804.00;;;;5023998;27;88969;-62
2023/08/29 09:31:52;;;;;;;0.47;0.47;;;15.30;99.90;15.40;99810.00;;;;5026447;27;88944;-64
2023/08/29 09:34:25;;;;;;;0.70;0.57;;;15.40;99.90;15.40;99800.00;;;;5025397;27;90220;-64
2023/08/29 09:36:51;;;;;;;0.22;0.22;;;15.40;99.90;15.40;99793.00;;;;5023673;27;87952;-63
2023/08/29 09:39:17;;;;;;;0.73;0.50;;;15.40;99.90;15.40;99792.00;;;;5006449;27;88998;-64
2023/08/29 09:41:42;;;;;;;0.40;0.40;;;15.30;99.90;15.30;99786.00;;;;5027250;27;88048;-64
2023/08/29 09:44:12;;;;;;;0.65;0.47;;;15.30;99.90;15.40;99801.00;;;;5022418;27;110012;-62
2023/08/29 09:46:44;;;;;;;0.40;0.40;;;15.30;99.90;15.40;99789.00;;;;5022552;27;89083;-64
2023/08/29 09:49:10;;;;;;;0.40;0.40;;;15.30;99.90;15.40;99798.00;;;;5028744;27;88802;-63
2023/08/29 09:51:37;;;;;;;0.45;0.40;;;15.30;99.90;15.50;99793.00;;;;5027094;27;106423;-63
2023/08/29 09:54:08;;;;;;;0.50;0.50;;;15.40;99.90;15.60;99799.00;;;;5015532;27;111081;-63
2023/08/29 09:56:38;;;;;;;0.47;0.40;;;15.50;99.90;15.70;99800.00;;;;5028073;27;87761;-63
2023/08/29 09:59:11;;;;;;;0.50;0.50;;;15.60;99.90;15.70;99805.00;;;;5011273;27;111921;-63
2023/08/29 10:01:40;;;;;;;0.25;0.25;;;15.60;99.90;15.70;99805.00;;;;5028781;27;88252;-62
2023/08/29 10:04:09;;;;;;;0.65;0.47;;;15.60;99.90;15.70;99802.00;;;;5032593;27;93780;-65
2023/08/29 10:06:37;;;;;;;0.63;0.63;;;15.60;99.90;15.70;99803.00;;;;5026792;27;89023;-65
2023/08/29 10:09:03;;;;;;;0.57;0.57;;;15.70;99.90;15.70;99799.00;;;;5013138;27;88008;-64
2023/08/29 10:11:29;;;;;;;0.28;0.22;;;15.60;99.90;15.70;99808.00;;;;5030178;27;87848;-64
2023/08/29 10:13:56;;;;;;;0.30;0.30;;;15.60;99.90;15.70;99802.00;;;;5013060;27;89428;-64
2023/08/29 10:16:22;;;;;;;0.40;0.40;;;15.60;99.90;15.70;99794.00;;;;5028501;27;108562;-65
2023/08/29 10:18:49;;;;;;;0.43;0.43;;;15.60;99.90;15.70;99798.00;;;;5030140;27;88741;-65
2023/08/29 10:21:17;;;;;;;0.52;0.45;;;15.60;99.90;15.70;99801.00;;;;5003420;27;88579;-65
2023/08/29 10:23:44;;;;;;;0.40;0.40;;;15.60;99.90;15.70;99793.00;;;;5023333;27;88803;-66
2023/08/29 10:26:10;;;;;;;0.75;0.45;;;15.60;99.90;15.70;99796.00;;;;5007601;27;107991;-64
2023/08/29 10:28:37;;;;;;;0.47;0.47;;;15.60;99.90;15.70;99791.00;;;;5011492;27;116534;-64
2023/08/29 10:31:07;;;;;;;0.75;0.45;;;15.60;99.90;15.70;99794.00;;;;5006739;27;117368;-65
2023/08/29 10:33:36;;;;;;;0.57;0.57;;;15.60;99.90;15.70;99788.00;;;;5007750;27;87849;-63
2023/08/29 10:36:03;;;;;;;0.68;0.68;;;15.60;99.90;15.70;99793.00;;;;5025420;27;88154;-63
2023/08/29 10:38:30;;;;;;;0.68;0.22;;;15.60;99.90;15.70;99779.00;;;;5025633;27;89085;-62
2023/08/29 10:41:04;;;;;;;0.30;0.30;;;15.60;99.90;15.80;99783.00;;;;5026498;27;115311;-63
2023/08/29 10:43:30;;;;;;;0.40;0.32;;;15.70;99.90;15.80;99778.00;;;;5025704;27;87570;-63
2023/08/29 10:45:57;;;;;;;0.57;0.40;;;15.70;99.90;15.80;99785.00;;;;5026674;27;88050;-66
2023/08/29 10:48:46;;;;;;;0.25;0.25;;;15.70;99.90;15.80;99786.00;;;;5029543;27;89418;-63